Time;durP1;ratioP1;P1;durP2;ratioP2;P2;SDS_P1;SDS_P2;PMS_P1;PMS_P2;Temp;Humidity;BMP_temperature;BMP_pressure;BME280_temperature;BME280_humidity;BME280_pressure;Samples;Min_cycle;Max_cycle;Signal;HPM_P1;HPM_P2
2022/03/05 00:01:26;;;;;;;8.82;5.55;;;-1.80;99.90;;;;;;4984951;28;20434;-33
2022/03/05 00:03:52;;;;;;;11.10;5.70;;;-2.00;99.90;;;;;;4989025;28;20042;-35
2022/03/05 00:06:17;;;;;;;11.63;6.40;;;-2.20;99.90;;;;;;4987631;28;20030;-35
2022/03/05 00:08:43;;;;;;;16.50;6.40;;;-2.10;99.90;;;;;;4985475;28;20439;-34
2022/03/05 00:11:09;;;;;;;13.07;6.13;;;-2.20;99.90;;;;;;4987091;28;20039;-35
2022/03/05 00:13:36;;;;;;;13.85;6.70;;;-2.20;99.90;;;;;;4988771;28;20034;-35
2022/03/05 00:16:02;;;;;;;10.30;6.13;;;-2.10;99.90;;;;;;4987795;28;20121;-35
2022/03/05 00:18:28;;;;;;;12.60;6.07;;;-2.00;99.90;;;;;;4981703;28;20031;-35
2022/03/05 00:20:54;;;;;;;8.70;5.57;;;-2.00;99.90;;;;;;4989106;28;20034;-34
2022/03/05 00:23:20;;;;;;;11.27;5.65;;;-1.90;99.90;;;;;;4969800;28;20030;-35
2022/03/05 00:25:46;;;;;;;8.63;5.65;;;-1.80;99.90;;;;;;4985149;28;20038;-35
2022/03/05 00:28:12;;;;;;;9.13;5.60;;;-1.70;99.90;;;;;;4987369;28;20042;-35
2022/03/05 00:30:38;;;;;;;10.55;5.82;;;-1.70;99.40;;;;;;4985557;28;20030;-34
2022/03/05 00:33:04;;;;;;;13.00;5.60;;;-1.70;99.20;;;;;;4988291;28;20482;-34
2022/03/05 00:35:30;;;;;;;8.43;5.72;;;-1.60;99.00;;;;;;4985525;28;20031;-36
2022/03/05 00:37:56;;;;;;;13.32;5.93;;;-1.60;98.20;;;;;;4984258;28;20830;-36
2022/03/05 00:40:21;;;;;;;9.50;6.10;;;-1.70;97.30;;;;;;4988950;28;20022;-36
2022/03/05 00:42:47;;;;;;;7.03;5.28;;;-1.70;96.80;;;;;;4988955;28;20430;-35
2022/03/05 00:45:13;;;;;;;11.77;7.53;;;-1.80;97.80;;;;;;4990604;28;20030;-33
2022/03/05 00:47:39;;;;;;;10.30;6.47;;;-1.90;98.70;;;;;;4990299;28;20475;-33
2022/03/05 00:50:07;;;;;;;10.48;5.88;;;-2.00;99.50;;;;;;4985569;28;20483;-34
2022/03/05 00:52:33;;;;;;;14.18;6.53;;;-2.10;99.90;;;;;;4984565;28;20037;-35
2022/03/05 00:54:59;;;;;;;9.90;6.20;;;-2.10;99.90;;;;;;4985765;28;20037;-34
2022/03/05 00:57:25;;;;;;;13.45;6.47;;;-2.20;99.90;;;;;;4988922;28;20026;-34
2022/03/05 00:59:50;;;;;;;7.32;4.65;;;-2.20;99.90;;;;;;4985392;28;20035;-36
2022/03/05 01:02:16;;;;;;;9.02;6.05;;;-2.30;99.90;;;;;;4988989;28;20511;-33
2022/03/05 01:04:42;;;;;;;9.90;5.13;;;-2.20;99.90;;;;;;4985974;28;20043;-36
2022/03/05 01:07:08;;;;;;;9.05;5.65;;;-2.20;99.90;;;;;;4984754;28;20037;-35
2022/03/05 01:09:33;;;;;;;6.45;5.45;;;-2.10;99.90;;;;;;4987364;28;20034;-33
2022/03/05 01:11:59;;;;;;;9.60;5.45;;;-2.20;99.90;;;;;;4986407;28;20956;-35
2022/03/05 01:14:25;;;;;;;12.45;6.47;;;-2.20;99.90;;;;;;4987762;28;20048;-35
2022/03/05 01:16:50;;;;;;;8.45;5.35;;;-2.00;99.20;;;;;;4985104;28;20042;-34
2022/03/05 01:19:16;;;;;;;8.57;6.45;;;-2.00;98.10;;;;;;4988413;28;20026;-35
2022/03/05 01:21:41;;;;;;;6.60;4.85;;;-2.10;97.90;;;;;;4984774;28;20045;-35
2022/03/05 01:24:10;;;;;;;10.05;4.60;;;-2.10;98.50;;;;;;4986719;28;21567;-35
2022/03/05 01:26:35;;;;;;;5.38;4.57;;;-2.10;98.20;;;;;;4987895;28;20084;-34
2022/03/05 01:29:01;;;;;;;9.40;4.40;;;-2.10;97.40;;;;;;4966692;28;20038;-36
2022/03/05 01:31:27;;;;;;;10.95;5.53;;;-2.10;97.50;;;;;;4985042;28;20104;-35
2022/03/05 01:33:58;;;;;;;11.68;6.30;;;-2.10;97.70;;;;;;4982520;28;20037;-36
2022/03/05 01:36:23;;;;;;;10.23;6.18;;;-2.10;98.40;;;;;;4985552;28;20034;-35
2022/03/05 01:38:49;;;;;;;8.85;5.35;;;-2.20;99.30;;;;;;4981101;28;20092;-35
2022/03/05 01:41:14;;;;;;;8.50;4.97;;;-2.30;99.90;;;;;;4984534;28;20808;-36
2022/03/05 01:43:40;;;;;;;13.07;6.25;;;-2.50;99.90;;;;;;4984939;28;20022;-35
2022/03/05 01:46:06;;;;;;;9.45;5.70;;;-2.60;99.90;;;;;;4986460;28;20591;-35
2022/03/05 01:48:31;;;;;;;10.75;5.85;;;-2.50;99.90;;;;;;4984911;28;20497;-35
2022/03/05 01:50:57;;;;;;;8.10;5.53;;;-2.40;99.90;;;;;;4984485;28;20038;-36
2022/03/05 01:53:22;;;;;;;14.95;6.18;;;-2.40;99.90;;;;;;4984982;28;20380;-34
2022/03/05 01:55:48;;;;;;;5.63;4.45;;;-2.30;99.90;;;;;;4984285;28;20049;-36
2022/03/05 01:58:15;;;;;;;7.25;4.47;;;-2.20;99.90;;;;;;4984311;28;20023;-35
2022/03/05 02:00:40;;;;;;;10.70;5.85;;;-2.20;98.70;;;;;;4985667;28;20392;-27
2022/03/05 02:03:06;;;;;;;9.73;4.80;;;-2.20;98.10;;;;;;4980507;28;20034;-29
2022/03/05 02:05:31;;;;;;;14.88;5.43;;;-2.30;97.30;;;;;;4980958;28;20125;-29
2022/03/05 02:07:57;;;;;;;13.32;6.28;;;-2.60;99.20;;;;;;4981936;28;20030;-28
2022/03/05 02:10:23;;;;;;;8.57;4.60;;;-2.60;99.10;;;;;;4959585;28;20038;-28
2022/03/05 02:12:49;;;;;;;13.38;5.25;;;-2.60;99.90;;;;;;4983326;28;20070;-28
2022/03/05 02:15:14;;;;;;;7.22;4.65;;;-2.60;99.50;;;;;;4980631;28;20030;-30
2022/03/05 02:18:33;;;;;;;9.25;5.35;;;-2.60;99.50;;;;;;4981727;28;20026;-30
2022/03/05 02:23:27;;;;;;;7.47;5.22;;;-2.70;99.90;;;;;;4995887;28;21068;-40
2022/03/05 02:25:58;;;;;;;5.95;4.65;;;-2.70;99.90;;;;;;4998191;28;20026;-37
2022/03/05 02:28:26;;;;;;;10.75;6.15;;;-2.80;99.90;;;;;;4998717;28;20072;-39
2022/03/05 02:30:52;;;;;;;10.48;5.78;;;-2.80;99.90;;;;;;5000247;28;20046;-37
2022/03/05 02:33:17;;;;;;;12.02;6.15;;;-2.90;99.90;;;;;;5001341;28;20076;-37
2022/03/05 02:35:43;;;;;;;12.85;6.63;;;-3.10;99.90;;;;;;5001351;28;20042;-38
2022/03/05 02:38:11;;;;;;;9.13;5.15;;;-3.20;99.90;;;;;;5000671;28;20379;-37
2022/03/05 02:40:37;;;;;;;13.38;6.47;;;-3.40;99.90;;;;;;4998957;28;20026;-40
2022/03/05 02:43:03;;;;;;;11.50;6.05;;;-3.60;99.90;;;;;;5000745;28;20036;-40
2022/03/05 02:45:28;;;;;;;11.35;6.72;;;-4.00;99.90;;;;;;5002670;28;20056;-37
2022/03/05 02:47:54;;;;;;;11.88;6.50;;;-3.90;99.90;;;;;;5002935;28;20036;-38
2022/03/05 02:50:19;;;;;;;15.48;5.75;;;-3.80;99.90;;;;;;4999991;28;20101;-36
2022/03/05 02:52:45;;;;;;;11.27;5.18;;;-3.70;99.90;;;;;;4996917;28;20030;-37
2022/03/05 02:55:11;;;;;;;8.18;5.38;;;-3.60;99.90;;;;;;4997030;28;20069;-39
2022/03/05 02:57:36;;;;;;;10.05;4.95;;;-3.40;99.90;;;;;;4999133;28;20052;-37
2022/03/05 03:00:04;;;;;;;10.18;5.63;;;-3.20;99.90;;;;;;5000963;28;20394;-40
2022/03/05 03:02:30;;;;;;;10.13;5.33;;;-3.40;99.90;;;;;;4997919;28;20034;-39
2022/03/05 03:04:55;;;;;;;12.20;6.25;;;-3.60;99.90;;;;;;4999774;28;20291;-39
2022/03/05 03:07:21;;;;;;;11.98;5.63;;;-3.60;99.90;;;;;;4999410;28;20049;-39
2022/03/05 03:09:47;;;;;;;6.05;4.40;;;-3.70;99.90;;;;;;5000229;28;20034;-39
2022/03/05 03:12:12;;;;;;;8.65;5.65;;;-3.90;99.90;;;;;;5001498;28;20103;-39
2022/03/05 03:14:38;;;;;;;14.57;6.50;;;-4.10;99.90;;;;;;4999082;28;20482;-40
2022/03/05 03:17:03;;;;;;;15.82;6.28;;;-4.00;99.90;;;;;;5001677;28;20014;-38
2022/03/05 03:19:29;;;;;;;11.93;5.93;;;-3.90;99.90;;;;;;5000986;28;20493;-37
2022/03/05 03:21:55;;;;;;;14.20;7.45;;;-3.80;99.90;;;;;;5002048;28;20034;-40
2022/03/05 03:24:20;;;;;;;10.73;6.47;;;-3.80;99.90;;;;;;5000575;28;20857;-40
2022/03/05 03:26:46;;;;;;;16.38;7.85;;;-3.80;99.90;;;;;;5002582;28;20080;-40
2022/03/05 03:29:12;;;;;;;11.07;5.25;;;-3.80;99.90;;;;;;5002593;28;20503;-38
2022/03/05 03:31:38;;;;;;;16.33;6.35;;;-3.90;99.90;;;;;;4999869;28;20057;-38
2022/03/05 03:34:04;;;;;;;13.77;5.55;;;-3.90;99.90;;;;;;5001233;28;20069;-37
2022/03/05 03:36:29;;;;;;;11.40;6.90;;;-3.90;99.90;;;;;;5002034;28;20444;-37
2022/03/05 03:38:55;;;;;;;12.57;6.40;;;-3.90;99.90;;;;;;4996754;28;20026;-37
2022/03/05 03:41:20;;;;;;;10.40;7.10;;;-4.00;99.90;;;;;;4999407;28;20486;-39
2022/03/05 03:43:46;;;;;;;12.07;6.00;;;-4.00;99.90;;;;;;4998682;28;20057;-40
2022/03/05 03:46:12;;;;;;;13.35;7.30;;;-4.10;99.90;;;;;;5004967;28;20486;-40
2022/03/05 03:48:37;;;;;;;9.38;5.32;;;-4.30;99.90;;;;;;5006662;28;20092;-39
2022/03/05 03:51:03;;;;;;;10.70;6.47;;;-4.40;99.90;;;;;;5004654;28;20918;-38
2022/03/05 03:53:29;;;;;;;8.82;6.00;;;-4.40;99.90;;;;;;5004704;28;20034;-37
2022/03/05 03:55:54;;;;;;;13.88;7.15;;;-4.40;99.90;;;;;;5008097;28;20034;-40
2022/03/05 03:58:20;;;;;;;10.45;5.70;;;-4.40;99.90;;;;;;5007416;28;20757;-38
2022/03/05 04:00:45;;;;;;;11.57;5.63;;;-4.40;99.90;;;;;;5003756;28;20134;-38
2022/03/05 04:03:11;;;;;;;16.30;7.57;;;-4.40;99.90;;;;;;5004479;28;20087;-40
2022/03/05 04:05:37;;;;;;;15.98;6.68;;;-4.30;99.90;;;;;;5006928;28;20037;-38
2022/03/05 04:10:46;;;;;;;13.05;5.90;;;-4.30;99.90;;;;;;5005994;28;20036;-37
2022/03/05 04:13:12;;;;;;;14.43;6.47;;;-4.40;99.90;;;;;;5007136;28;20113;-39
2022/03/05 04:15:38;;;;;;;11.75;6.22;;;-4.40;99.90;;;;;;5005510;28;20022;-38
2022/03/05 04:18:04;;;;;;;10.95;6.53;;;-4.30;99.90;;;;;;5007651;28;20036;-38
2022/03/05 04:20:30;;;;;;;9.18;6.43;;;-4.30;99.90;;;;;;5007108;28;20025;-38
2022/03/05 04:22:58;;;;;;;13.70;5.85;;;-4.20;99.90;;;;;;5007946;28;20108;-39
2022/03/05 04:25:24;;;;;;;9.63;5.80;;;-4.20;99.90;;;;;;5007622;28;20121;-40
2022/03/05 04:27:49;;;;;;;9.27;6.10;;;-4.20;99.90;;;;;;5006116;28;20141;-40
2022/03/05 04:30:15;;;;;;;14.50;7.40;;;-4.20;99.90;;;;;;5006611;28;20077;-38
2022/03/05 04:32:41;;;;;;;9.80;6.70;;;-4.30;99.90;;;;;;5006495;28;20037;-39
2022/03/05 04:35:08;;;;;;;13.65;7.40;;;-4.30;99.90;;;;;;5007373;28;20037;-38
2022/03/05 04:37:34;;;;;;;11.27;6.82;;;-4.40;99.90;;;;;;5005935;28;20104;-39
2022/03/05 04:40:00;;;;;;;12.10;7.47;;;-4.40;99.90;;;;;;5008384;28;20062;-38
2022/03/05 04:42:25;;;;;;;10.57;8.05;;;-4.40;99.90;;;;;;5006472;28;20029;-39
2022/03/05 04:44:51;;;;;;;11.90;6.13;;;-4.40;99.90;;;;;;5006572;28;20033;-37
2022/03/05 04:47:17;;;;;;;12.85;6.68;;;-4.40;99.90;;;;;;5006089;28;20038;-37
2022/03/05 04:49:42;;;;;;;18.23;8.73;;;-4.50;99.90;;;;;;5007101;28;20038;-37
2022/03/05 04:52:08;;;;;;;10.07;7.00;;;-4.50;99.90;;;;;;5009068;28;20025;-37
2022/03/05 04:54:34;;;;;;;15.57;7.78;;;-4.50;99.90;;;;;;5011810;28;20123;-36
2022/03/05 04:57:00;;;;;;;14.30;7.78;;;-4.50;99.90;;;;;;5006937;28;20505;-37
2022/03/05 04:59:25;;;;;;;16.05;7.22;;;-4.60;99.90;;;;;;5007947;28;20490;-39
2022/03/05 05:01:52;;;;;;;12.70;6.05;;;-4.60;99.90;;;;;;5008026;28;20042;-39
2022/03/05 05:04:18;;;;;;;14.10;7.13;;;-4.70;99.90;;;;;;5010551;28;20113;-37
2022/03/05 05:06:44;;;;;;;11.02;6.65;;;-4.70;99.90;;;;;;5008286;28;20129;-38
2022/03/05 05:09:09;;;;;;;15.82;8.15;;;-4.70;99.90;;;;;;5007225;28;20036;-37
2022/03/05 05:11:35;;;;;;;12.18;6.50;;;-4.70;99.90;;;;;;5008213;28;20026;-37
2022/03/05 05:14:01;;;;;;;9.82;7.07;;;-4.60;99.90;;;;;;5007007;28;20057;-40
2022/03/05 05:16:27;;;;;;;13.02;7.95;;;-4.60;99.90;;;;;;5009086;28;20987;-39
2022/03/05 05:21:36;;;;;;;12.35;6.55;;;-4.60;99.90;;;;;;5006558;28;20506;-37
2022/03/05 05:24:02;;;;;;;8.00;6.03;;;-4.60;99.90;;;;;;5009167;28;20034;-37
2022/03/05 05:26:28;;;;;;;9.30;5.75;;;-4.60;99.90;;;;;;5006784;28;20091;-37
2022/03/05 05:28:54;;;;;;;9.48;6.53;;;-4.60;99.90;;;;;;4990127;28;20058;-39
2022/03/05 05:31:19;;;;;;;11.73;6.65;;;-4.50;99.90;;;;;;5003232;28;20498;-40
2022/03/05 05:33:45;;;;;;;17.95;8.05;;;-4.60;99.90;;;;;;5004325;28;21477;-38
2022/03/05 05:36:14;;;;;;;21.90;8.05;;;-4.60;99.90;;;;;;5006747;28;20037;-39
2022/03/05 05:38:39;;;;;;;17.25;9.10;;;-4.70;99.90;;;;;;5007560;28;20402;-40
2022/03/05 05:41:06;;;;;;;10.30;5.95;;;-4.70;99.90;;;;;;5004674;28;20029;-37
2022/03/05 05:43:32;;;;;;;13.02;7.05;;;-4.70;99.90;;;;;;5004557;28;20071;-39
2022/03/05 05:45:57;;;;;;;16.10;6.38;;;-4.70;99.90;;;;;;5004843;28;20025;-39
2022/03/05 05:48:23;;;;;;;10.55;6.65;;;-4.60;99.90;;;;;;5006156;28;20121;-39
2022/03/05 05:50:49;;;;;;;12.65;6.30;;;-4.70;99.90;;;;;;5004330;28;20037;-37
2022/03/05 05:53:14;;;;;;;17.27;9.48;;;-4.70;99.90;;;;;;5004072;28;20041;-38
2022/03/05 05:55:40;;;;;;;14.23;8.27;;;-4.70;99.90;;;;;;5005389;28;20026;-37
2022/03/05 05:58:06;;;;;;;19.58;7.95;;;-4.80;99.90;;;;;;5005038;28;20044;-37
2022/03/05 06:00:31;;;;;;;19.63;10.98;;;-4.80;99.90;;;;;;5007517;28;20141;-40
2022/03/05 06:02:57;;;;;;;20.75;10.02;;;-4.90;99.90;;;;;;5007974;28;20037;-39
2022/03/05 06:05:22;;;;;;;21.52;12.52;;;-4.90;99.90;;;;;;5006782;28;20064;-37
2022/03/05 06:07:48;;;;;;;20.10;7.45;;;-4.90;99.90;;;;;;5009737;28;20041;-37
2022/03/05 06:10:14;;;;;;;13.23;7.88;;;-4.90;99.90;;;;;;5005393;28;20041;-38
2022/03/05 06:12:40;;;;;;;14.57;8.45;;;-4.70;99.90;;;;;;5006965;28;20061;-40
2022/03/05 06:15:08;;;;;;;14.60;7.93;;;-4.60;99.90;;;;;;5005404;28;20494;-37
2022/03/05 06:17:34;;;;;;;16.05;7.47;;;-4.50;99.90;;;;;;5003436;28;20434;-37
2022/03/05 06:20:00;;;;;;;14.68;8.02;;;-4.40;99.90;;;;;;5005318;28;20030;-39
2022/03/05 06:22:26;;;;;;;17.30;6.32;;;-4.40;99.90;;;;;;5001424;28;20517;-39
2022/03/05 06:24:52;;;;;;;12.75;6.47;;;-4.30;99.90;;;;;;5002410;28;20029;-40
2022/03/05 06:27:17;;;;;;;12.77;7.10;;;-4.20;99.90;;;;;;5007251;28;20042;-36
2022/03/05 06:29:43;;;;;;;10.85;7.95;;;-4.20;99.90;;;;;;5004575;28;20034;-38
2022/03/05 06:32:09;;;;;;;14.20;8.23;;;-4.20;99.90;;;;;;5005305;28;20046;-40
2022/03/05 06:34:35;;;;;;;11.77;7.32;;;-4.20;99.90;;;;;;5004567;28;20755;-39
2022/03/05 06:37:00;;;;;;;22.55;10.13;;;-4.20;99.90;;;;;;5005492;28;20405;-40
2022/03/05 06:39:26;;;;;;;17.83;7.65;;;-4.10;99.90;;;;;;5005270;28;20034;-38
2022/03/05 06:41:52;;;;;;;16.52;8.20;;;-4.00;99.90;;;;;;5004679;28;20085;-39
2022/03/05 06:44:18;;;;;;;23.23;9.98;;;-4.00;99.90;;;;;;5004627;28;20021;-37
2022/03/05 06:46:43;;;;;;;13.38;8.85;;;-4.00;99.90;;;;;;5005938;28;20029;-38
2022/03/05 06:49:09;;;;;;;19.08;8.60;;;-3.90;99.90;;;;;;5004263;28;20034;-37
2022/03/05 06:51:35;;;;;;;17.85;9.07;;;-3.90;99.90;;;;;;4983632;28;20042;-37
2022/03/05 06:54:00;;;;;;;19.58;8.40;;;-3.90;99.90;;;;;;4999990;28;20022;-38
2022/03/05 06:56:26;;;;;;;19.38;9.48;;;-3.80;99.90;;;;;;4999349;28;20041;-37
2022/03/05 06:58:51;;;;;;;17.38;8.48;;;-3.80;99.90;;;;;;5001178;28;20172;-38
2022/03/05 07:01:17;;;;;;;19.88;9.00;;;-3.70;99.90;;;;;;4998608;28;20422;-38
2022/03/05 07:03:43;;;;;;;20.33;8.85;;;-3.70;99.90;;;;;;5003574;28;20479;-37
2022/03/05 07:06:08;;;;;;;20.75;10.30;;;-3.60;99.90;;;;;;5004210;28;20025;-39
2022/03/05 07:08:36;;;;;;;20.65;9.23;;;-3.50;99.90;;;;;;5003066;28;20378;-37
2022/03/05 07:11:02;;;;;;;12.37;7.63;;;-3.50;99.90;;;;;;5003233;28;20079;-38
2022/03/05 07:13:28;;;;;;;19.05;10.40;;;-3.40;99.90;;;;;;5004445;28;20033;-38
2022/03/05 07:15:53;;;;;;;18.15;9.38;;;-3.30;99.90;;;;;;4985186;28;20064;-36
2022/03/05 07:18:19;;;;;;;19.92;9.50;;;-3.30;99.90;;;;;;5002138;28;20030;-39
2022/03/05 07:20:45;;;;;;;14.65;7.97;;;-3.10;99.90;;;;;;5006018;28;20095;-40
2022/03/05 07:23:10;;;;;;;17.88;9.55;;;-3.10;99.90;;;;;;5005890;28;20044;-40
2022/03/05 07:25:39;;;;;;;25.92;11.63;;;-3.00;99.90;;;;;;5006382;28;20044;-38
2022/03/05 07:28:08;;;;;;;;;;;-2.90;99.90;;;;;;5010951;28;20030;-39
2022/03/05 07:30:35;;;;;;;17.70;9.77;;;-2.90;99.90;;;;;;5010092;28;20290;-38
2022/03/05 07:33:01;;;;;;;22.65;11.27;;;-2.80;99.90;;;;;;5010875;28;20026;-38
2022/03/05 07:35:26;;;;;;;26.55;10.98;;;-2.70;99.90;;;;;;5005564;28;20036;-37
2022/03/05 07:37:52;;;;;;;25.02;10.20;;;-2.60;99.90;;;;;;5007768;28;20029;-39
2022/03/05 07:40:18;;;;;;;21.38;11.32;;;-2.50;99.90;;;;;;5007695;28;20399;-39
2022/03/05 07:42:44;;;;;;;23.50;11.35;;;-2.40;99.90;;;;;;5006296;28;20110;-37
2022/03/05 07:45:09;;;;;;;26.40;10.77;;;-2.30;99.90;;;;;;5006846;28;20045;-39
2022/03/05 07:47:35;;;;;;;24.58;10.35;;;-2.30;99.90;;;;;;5007211;28;20113;-39
2022/03/05 07:50:01;;;;;;;24.58;11.40;;;-2.20;99.90;;;;;;5005608;28;20034;-36
2022/03/05 07:52:27;;;;;;;19.60;9.60;;;-2.10;99.90;;;;;;5007277;28;20744;-40
2022/03/05 07:54:53;;;;;;;15.10;7.70;;;-2.00;99.90;;;;;;5006461;28;20159;-37
2022/03/05 07:57:19;;;;;;;25.88;11.25;;;-1.90;99.90;;;;;;5003663;28;20112;-38
2022/03/05 07:59:45;;;;;;;21.42;10.50;;;-1.70;99.90;;;;;;5004010;28;20033;-41
2022/03/05 08:02:10;;;;;;;27.90;9.80;;;-1.60;99.90;;;;;;5004367;28;20697;-37
2022/03/05 08:04:36;;;;;;;23.08;10.27;;;-1.50;99.90;;;;;;5001865;28;20033;-40
2022/03/05 08:07:04;;;;;;;18.65;7.20;;;-1.40;99.90;;;;;;5003675;28;20470;-40
2022/03/05 08:09:30;;;;;;;22.35;11.25;;;-1.20;99.90;;;;;;5004335;28;20034;-39
2022/03/05 08:11:56;;;;;;;15.95;7.95;;;-1.10;99.90;;;;;;5002018;28;20126;-40
2022/03/05 08:14:21;;;;;;;16.65;9.02;;;-1.00;99.90;;;;;;5004662;28;20034;-40
2022/03/05 08:16:47;;;;;;;26.50;11.82;;;-0.80;99.90;;;;;;5001946;28;20038;-40
2022/03/05 08:19:13;;;;;;;24.60;10.50;;;-0.60;99.90;;;;;;5001106;28;20096;-38
2022/03/05 08:21:38;;;;;;;28.73;13.20;;;-0.50;99.90;;;;;;4999926;28;20042;-40
2022/03/05 08:24:04;;;;;;;34.55;12.27;;;-0.40;99.90;;;;;;5002390;28;20402;-40
2022/03/05 08:26:30;;;;;;;26.50;12.82;;;-0.20;99.90;;;;;;5004492;28;20026;-38
2022/03/05 08:28:56;;;;;;;21.95;11.30;;;-0.10;99.90;;;;;;5003801;28;20041;-38
2022/03/05 08:31:21;;;;;;;26.17;10.80;;;-0.10;99.90;;;;;;5002976;28;20582;-38
2022/03/05 08:33:47;;;;;;;30.83;14.38;;;0.10;99.90;;;;;;5003353;28;20022;-38
2022/03/05 08:36:12;;;;;;;31.77;12.52;;;0.30;99.90;;;;;;5004464;28;20034;-40
2022/03/05 08:38:39;;;;;;;33.10;13.60;;;0.30;99.90;;;;;;5005009;28;20034;-36
2022/03/05 08:41:05;;;;;;;32.13;14.68;;;0.40;99.90;;;;;;5003858;28;20030;-39
2022/03/05 08:43:31;;;;;;;27.05;13.65;;;0.30;99.90;;;;;;5003975;28;20034;-39
2022/03/05 08:45:57;;;;;;;31.58;15.60;;;0.50;99.90;;;;;;5003931;28;20371;-39
2022/03/05 08:48:23;;;;;;;31.58;14.70;;;0.50;99.90;;;;;;5005153;28;20482;-38
2022/03/05 08:50:48;;;;;;;21.20;11.85;;;0.60;99.90;;;;;;5005471;28;20030;-37
2022/03/05 08:53:14;;;;;;;32.60;12.90;;;0.70;99.90;;;;;;5004379;28;20030;-40
2022/03/05 08:55:41;;;;;;;33.25;14.70;;;0.70;99.90;;;;;;5004135;28;20047;-37
2022/03/05 08:58:06;;;;;;;31.20;13.77;;;0.90;99.90;;;;;;5005377;28;20034;-37
2022/03/05 09:00:32;;;;;;;25.02;12.90;;;0.90;99.90;;;;;;5005078;28;20044;-37
2022/03/05 09:02:57;;;;;;;27.98;11.38;;;1.00;99.90;;;;;;5005281;28;20052;-38
2022/03/05 09:05:23;;;;;;;31.08;13.10;;;1.00;99.90;;;;;;5002894;28;20842;-40
2022/03/05 09:07:49;;;;;;;24.83;12.15;;;1.10;99.90;;;;;;5002637;28;20034;-38
2022/03/05 09:10:14;;;;;;;28.55;11.70;;;1.00;99.90;;;;;;5003830;28;20112;-40
2022/03/05 09:12:41;;;;;;;30.98;12.13;;;1.20;99.90;;;;;;5003866;28;20022;-37
2022/03/05 09:15:07;;;;;;;25.17;12.13;;;1.30;99.90;;;;;;5002266;28;20513;-37
2022/03/05 09:17:33;;;;;;;25.95;12.40;;;1.40;99.90;;;;;;5007024;28;20033;-40
2022/03/05 09:19:59;;;;;;;28.35;12.50;;;1.60;99.90;;;;;;5004662;28;20034;-37
2022/03/05 09:22:25;;;;;;;26.88;12.10;;;1.70;99.90;;;;;;5001122;28;20052;-40
2022/03/05 09:24:50;;;;;;;27.02;12.38;;;1.80;99.90;;;;;;5004628;28;20124;-38
2022/03/05 09:27:16;;;;;;;23.20;12.20;;;1.90;99.90;;;;;;5001449;28;20109;-40
2022/03/05 09:29:42;;;;;;;25.50;12.40;;;1.70;99.90;;;;;;5003555;28;20038;-37
2022/03/05 09:32:09;;;;;;;27.70;12.85;;;1.50;99.90;;;;;;4985634;28;20037;-39
2022/03/05 09:34:35;;;;;;;29.90;13.32;;;1.40;99.90;;;;;;5001605;28;20037;-40
2022/03/05 09:37:01;;;;;;;31.42;12.65;;;1.30;99.90;;;;;;5001379;28;20087;-38
2022/03/05 09:39:27;;;;;;;28.30;11.50;;;1.30;99.90;;;;;;5001930;28;20387;-40
2022/03/05 09:41:54;;;;;;;21.10;10.57;;;1.40;99.90;;;;;;5003670;28;20092;-36
2022/03/05 09:44:19;;;;;;;23.95;11.80;;;1.50;99.90;;;;;;5003920;28;20026;-39
2022/03/05 09:46:49;;;;;;;28.40;13.60;;;2.00;99.90;;;;;;4998466;28;20033;-36
2022/03/05 09:49:16;;;;;;;22.40;10.88;;;2.10;99.90;;;;;;4997970;28;20030;-39
2022/03/05 09:51:41;;;;;;;25.65;10.13;;;2.40;99.90;;;;;;4999709;28;20042;-38
2022/03/05 09:54:07;;;;;;;20.20;8.98;;;2.50;98.20;;;;;;4998552;28;20026;-39
2022/03/05 09:56:32;;;;;;;16.60;8.48;;;2.40;95.90;;;;;;5000416;28;20061;-37
2022/03/05 09:58:58;;;;;;;15.27;8.05;;;2.30;98.40;;;;;;5000652;28;20034;-41
2022/03/05 10:01:24;;;;;;;20.38;10.63;;;2.50;93.40;;;;;;5000303;28;20034;-38
2022/03/05 10:03:52;;;;;;;25.13;11.30;;;2.50;95.40;;;;;;5003254;28;20036;-39
2022/03/05 10:06:23;;;;;;;23.92;12.00;;;2.60;94.00;;;;;;5001639;28;20041;-40
2022/03/05 10:08:55;;;;;;;21.30;10.63;;;2.60;95.30;;;;;;5000538;28;20494;-38
2022/03/05 10:11:22;;;;;;;17.70;9.30;;;2.70;99.30;;;;;;4983757;28;20030;-38
2022/03/05 10:13:49;;;;;;;16.20;7.72;;;3.00;92.00;;;;;;5001402;28;20072;-41
2022/03/05 10:16:26;;;;;;;12.02;7.05;;;2.90;92.20;;;;;;4999832;28;20109;-40
2022/03/05 10:18:53;;;;;;;18.10;7.90;;;3.10;82.90;;;;;;5000369;28;20785;-38
2022/03/05 10:21:29;;;;;;;17.15;8.43;;;3.20;80.60;;;;;;5000527;28;20585;-40
2022/03/05 10:24:09;;;;;;;16.77;8.50;;;3.20;80.50;;;;;;5002964;28;20026;-39
2022/03/05 10:26:55;;;;;;;19.05;6.70;;;3.20;77.70;;;;;;5001399;28;20072;-38
2022/03/05 10:29:22;;;;;;;15.48;7.80;;;3.10;75.00;;;;;;5001426;28;20045;-38
2022/03/05 10:32:16;;;;;;;17.40;8.05;;;3.10;75.80;;;;;;5000573;28;20065;-37
2022/03/05 10:34:42;;;;;;;12.60;6.78;;;3.40;81.20;;;;;;5000973;28;20040;-37
2022/03/05 10:37:08;;;;;;;14.50;7.13;;;3.90;70.20;;;;;;5000684;28;20033;-40
2022/03/05 10:39:34;;;;;;;13.57;6.88;;;3.80;66.60;;;;;;5002047;28;20026;-38
2022/03/05 10:42:00;;;;;;;11.05;6.28;;;3.20;66.70;;;;;;5001215;28;20038;-40
2022/03/05 10:44:26;;;;;;;13.98;7.03;;;2.90;68.30;;;;;;4997779;28;20042;-37
2022/03/05 10:46:57;;;;;;;14.18;6.38;;;2.90;72.30;;;;;;4998182;28;22489;-37
2022/03/05 10:49:37;;;;;;;13.43;6.60;;;3.40;70.20;;;;;;4995986;28;20386;-37
2022/03/05 10:52:03;;;;;;;13.23;6.35;;;3.50;64.10;;;;;;4997186;28;20514;-39
2022/03/05 10:54:29;;;;;;;13.73;7.82;;;3.50;65.30;;;;;;4996088;28;20084;-38
2022/03/05 10:57:21;;;;;;;12.55;6.72;;;3.50;66.00;;;;;;5001040;28;20659;-38
2022/03/05 11:00:04;;;;;;;11.32;6.28;;;3.60;61.10;;;;;;4997317;28;20038;-40
2022/03/05 11:02:30;;;;;;;11.77;5.93;;;4.00;62.60;;;;;;5001306;28;20387;-37
2022/03/05 11:04:57;;;;;;;11.32;6.15;;;3.80;62.20;;;;;;5000550;28;20085;-39
2022/03/05 11:07:23;;;;;;;9.55;5.82;;;3.50;56.90;;;;;;4999367;28;20790;-38
2022/03/05 11:09:50;;;;;;;15.27;6.13;;;3.40;57.70;;;;;;4999993;28;20441;-40
2022/03/05 11:12:18;;;;;;;10.60;6.22;;;3.60;58.00;;;;;;4999417;28;20036;-40
2022/03/05 11:14:45;;;;;;;11.27;6.15;;;3.80;60.60;;;;;;5002777;28;20028;-39
2022/03/05 11:17:11;;;;;;;18.48;6.63;;;3.80;60.50;;;;;;4997892;28;20045;-38
2022/03/05 11:19:38;;;;;;;12.00;5.88;;;4.00;56.80;;;;;;4996092;28;20022;-39
2022/03/05 11:22:04;;;;;;;12.23;5.82;;;4.20;58.20;;;;;;5000583;28;20053;-40
2022/03/05 11:24:31;;;;;;;10.18;5.35;;;4.10;55.00;;;;;;4983914;28;20030;-39
2022/03/05 11:26:57;;;;;;;8.40;4.55;;;3.90;58.60;;;;;;5002514;28;20481;-38
2022/03/05 11:29:28;;;;;;;12.10;5.88;;;3.80;54.00;;;;;;5000426;28;20033;-37
2022/03/05 11:32:13;;;;;;;15.75;6.40;;;3.90;54.20;;;;;;4998741;28;20049;-37
2022/03/05 11:35:22;;;;;;;9.85;6.18;;;4.20;55.30;;;;;;4983248;28;20064;-40
2022/03/05 11:37:50;;;;;;;12.13;6.00;;;4.10;61.10;;;;;;4966311;28;20097;-39
2022/03/05 11:40:40;;;;;;;8.20;4.97;;;4.30;54.80;;;;;;5001638;28;20026;-37
2022/03/05 11:43:19;;;;;;;9.98;5.40;;;3.80;53.00;;;;;;4997813;28;20034;-38
2022/03/05 11:46:04;;;;;;;11.55;6.35;;;4.10;55.40;;;;;;5001494;28;20236;-40
2022/03/05 11:48:36;;;;;;;13.48;6.35;;;4.00;56.00;;;;;;4999714;28;20029;-37
2022/03/05 11:51:22;;;;;;;11.43;6.18;;;4.10;57.10;;;;;;4999813;28;20038;-36
2022/03/05 11:54:11;;;;;;;11.75;6.18;;;4.20;57.70;;;;;;4999676;28;20099;-40
2022/03/05 11:56:36;;;;;;;11.90;6.28;;;4.10;53.60;;;;;;4999637;28;20467;-37
2022/03/05 11:59:40;;;;;;;8.73;5.55;;;4.10;54.70;;;;;;5004289;28;20097;-39
2022/03/05 12:02:06;;;;;;;12.95;6.68;;;4.10;53.60;;;;;;4999872;28;20041;-37
2022/03/05 12:04:33;;;;;;;10.68;6.20;;;3.90;54.90;;;;;;4999507;28;20037;-38
2022/03/05 12:07:03;;;;;;;12.27;6.50;;;3.80;54.90;;;;;;4996985;28;20050;-37
2022/03/05 12:09:35;;;;;;;9.30;5.63;;;3.70;54.80;;;;;;5000557;28;20033;-39
2022/03/05 12:12:02;;;;;;;12.23;6.90;;;3.90;55.40;;;;;;4986379;28;20026;-37
2022/03/05 12:15:06;;;;;;;10.55;6.03;;;3.80;54.50;;;;;;5007698;28;20030;-37
2022/03/05 12:17:33;;;;;;;13.48;6.28;;;3.80;53.80;;;;;;4941662;28;20032;-40
2022/03/05 12:19:59;;;;;;;12.68;6.35;;;3.80;54.90;;;;;;4994533;28;20203;-37
2022/03/05 12:22:24;;;;;;;10.00;6.68;;;3.70;55.10;;;;;;5001656;28;20530;-37
2022/03/05 12:24:50;;;;;;;11.73;6.35;;;3.60;54.70;;;;;;5002847;28;20038;-39
2022/03/05 12:27:17;;;;;;;9.90;5.95;;;3.60;56.50;;;;;;5006505;28;20068;-38
2022/03/05 12:29:51;;;;;;;10.38;6.43;;;3.80;53.50;;;;;;5005536;28;20026;-38
2022/03/05 12:32:18;;;;;;;9.95;6.28;;;3.70;54.20;;;;;;5001602;28;20092;-38
2022/03/05 12:34:44;;;;;;;11.93;6.35;;;3.80;57.50;;;;;;5002473;28;20061;-37
2022/03/05 12:37:10;;;;;;;10.82;7.00;;;4.10;55.60;;;;;;5002590;28;21193;-37
2022/03/05 12:39:43;;;;;;;10.02;5.53;;;4.00;54.10;;;;;;5004286;28;20083;-40
2022/03/05 12:42:09;;;;;;;9.82;5.22;;;4.00;53.00;;;;;;5005749;28;20025;-37
2022/03/05 12:44:36;;;;;;;9.48;5.18;;;4.00;54.60;;;;;;5002804;28;20026;-37
2022/03/05 12:47:02;;;;;;;8.25;5.50;;;4.20;52.80;;;;;;5004192;28;20490;-40
2022/03/05 12:49:28;;;;;;;11.60;6.72;;;4.20;54.20;;;;;;5003641;28;20083;-40